»·PEaware :: FDX2346 KPDX-KSEA

FDX2346 :: KPDX-KSEA

FLIGHT INFORMATION

Flight Status: Arrived
Operator:
Federal Express
More flights by this operator :: More flights under this callsign
Pilot: Kyle M. (9350)
Aircraft: BOEING 727-200
(B722)
More flights by this aircraft type
Origin: KPDX Portland Intl
United States
Destination: KSEA Seattle-Tacoma Intl
United States
More flights between these airports :: More routes between these airports
Route: +COUGA KRIEG HAWKZ7
File this flight plan on PilotEdge
Remarks: CptCanada Youtube Livestreams
Altitude:
(Current/Filed)
20,000ft
Speed:
(Current/Filed)
450kts
Departed: 06-Jul-19 01:28 PM
Arrived: 06-Jul-19 02:00 PM
Distance/Time
Traveled:
113nm/0:31
Distance/Time
To Go:
Arrived

Flight Plot

Page will automatically refresh every two minutes.

Flight plan parsing failed; only flown route is shown


Map Options




Map Legend


Flown Route
Filed Route
Departure Airport
Arrival Airport
Navaid (VOR, NDB)
Fix

Horizontal Profiles

Position Reports

Time Latitude Longitude Heading Altitude Ground
Speed
06-Jul-19 13:00 45.581217 -122.609816 44 41ft 0kts
06-Jul-19 13:01 45.581217 -122.609816 44 41ft 0kts
06-Jul-19 13:02 45.581217 -122.609816 44 41ft 0kts
06-Jul-19 13:04 45.581217 -122.609816 44 41ft 0kts
06-Jul-19 13:05 45.581217 -122.609816 44 41ft 0kts
06-Jul-19 13:06 45.581217 -122.609816 44 41ft 0kts
06-Jul-19 13:07 45.581217 -122.609816 44 41ft 0kts
06-Jul-19 13:08 45.581217 -122.609816 44 41ft 0kts
06-Jul-19 13:09 45.581217 -122.609816 44 41ft 0kts
06-Jul-19 13:10 45.581217 -122.609816 44 41ft 0kts
06-Jul-19 13:11 45.581217 -122.609816 44 41ft 0kts
06-Jul-19 13:12 45.581217 -122.609816 44 41ft 0kts
06-Jul-19 13:13 45.581217 -122.609816 44 41ft 0kts
06-Jul-19 13:14 45.581217 -122.609816 44 41ft 0kts
06-Jul-19 13:15 45.581217 -122.609817 45 41ft 0kts
06-Jul-19 13:16 45.580870 -122.610318 44 41ft 1kts
06-Jul-19 13:17 45.580529 -122.610295 313 41ft 0kts
06-Jul-19 13:18 45.580530 -122.610296 313 41ft 0kts
06-Jul-19 13:19 45.580530 -122.610296 313 41ft 0kts
06-Jul-19 13:20 45.580530 -122.610296 313 41ft 0kts
06-Jul-19 13:21 45.581856 -122.612183 315 41ft 9kts
06-Jul-19 13:22 45.582518 -122.613129 314 41ft 10kts
06-Jul-19 13:22 45.584999 -122.610942 44 41ft 15kts
06-Jul-19 13:24 45.588520 -122.607681 299 41ft 12kts
06-Jul-19 13:25 45.589802 -122.613084 274 41ft 16kts
06-Jul-19 13:25 45.591591 -122.618400 298 41ft 19kts
06-Jul-19 13:26 45.594539 -122.621769 30 41ft 14kts
06-Jul-19 13:27 45.584543 -122.594372 119 351ft 162kts
06-Jul-19 13:28 45.558659 -122.536595 119 2590ft 185kts
06-Jul-19 13:29 45.591727 -122.490016 343 4177ft 259kts
06-Jul-19 13:30 45.661874 -122.516705 343 8123ft 269kts
06-Jul-19 13:31 45.737419 -122.544705 341 11340ft 286kts
06-Jul-19 13:32 45.824902 -122.577329 341 13290ft 345kts
06-Jul-19 13:33 45.920277 -122.612958 340 16184ft 359kts
06-Jul-19 13:34 46.019513 -122.650186 340 18669ft 373kts
06-Jul-19 13:35 46.124827 -122.682897 346 20211ft 407kts
06-Jul-19 13:36 46.245732 -122.707703 348 20203ft 464kts
06-Jul-19 13:37 46.375437 -122.723750 354 20199ft 508kts
06-Jul-19 13:38 46.511945 -122.729150 355 20180ft 454kts
06-Jul-19 13:39 46.628443 -122.733357 354 19314ft 396kts
06-Jul-19 13:40 46.735682 -122.737217 354 17759ft 356kts
06-Jul-19 13:41 46.825682 -122.687546 34 14543ft 350kts
06-Jul-19 13:42 46.900650 -122.602423 38 11987ft 318kts
06-Jul-19 13:43 46.964746 -122.528167 20 11049ft 288kts
06-Jul-19 13:44 47.042681 -122.511484 6 9958ft 279kts
06-Jul-19 13:45 47.121248 -122.494817 6 9865ft 290kts
06-Jul-19 13:46 47.200057 -122.478711 4 9672ft 276kts
06-Jul-19 13:47 47.274789 -122.467226 5 8873ft 263kts
06-Jul-19 13:48 47.346527 -122.456411 1 8266ft 254kts
06-Jul-19 13:49 47.416952 -122.455373 359 7091ft 249kts
06-Jul-19 13:50 47.485959 -122.455644 357 5884ft 245kts
06-Jul-19 13:51 47.553797 -122.457752 357 4730ft 240kts
06-Jul-19 13:52 47.620294 -122.459809 4 4000ft 234kts
06-Jul-19 13:53 47.644367 -122.384588 114 4001ft 234kts
06-Jul-19 13:54 47.614994 -122.310211 164 3754ft 208kts
06-Jul-19 13:55 47.565354 -122.308544 179 2466ft 154kts
06-Jul-19 13:56 47.523554 -122.307534 181 1734ft 151kts
06-Jul-19 13:57 47.482229 -122.307630 181 845ft 143kts
06-Jul-19 13:58 47.449201 -122.307887 179 438ft 52kts
06-Jul-19 13:59 47.446232 -122.306331 27 438ft 6kts
06-Jul-19 14:00 47.451777 -122.306268 359 438ft 24kts
06-Jul-19 14:01 47.459091 -122.306190 0 438ft 28kts

Navigation Log

Ident Type
Flight plan parsing failed, navigation log unavailable